M I D A S
Marine Information and Data Acquisition System
Tripno 850 of the Zeeleeuw from 2005-02-23 07:26:07 to 2005-02-23 14:39:23
Back to CruiseResearch ActivitiesStationsMapUnderway DataData graphs

EquipmentUnitsComment
TimeDGPSUTC
LatitudeDGPSDM.mWGS84
LongitudeDGPSDM.mWGS84
HeadingGyrodeg 
SOGDGPSknotsSpeed over ground
COGDGPSdegCourse over ground
DepthEcho soundermeters200 kHz
Missing or incorrect values are displayed as -999
Navigation data collected by the RV Zeeleeuw from 2005-02-23 07:27:59 to 2005-02-23 14:45:50
Time Latitude Longitude Heading SOG COG Depth
2005-02-23 07:29:05 51°13.616 2°56.028 119.4 3 298 -999
2005-02-23 07:30:02 51°13.599 2°56.057 140.5 3.2 135 8.8
2005-02-23 07:31:05 51°13.549 2°56.133 135.1 4.1 135 9
2005-02-23 07:32:04 51°13.53 2°56.217 86.6 3.6 76 9.5
2005-02-23 07:33:03 51°13.541 2°56.237 34.5 0.9 226 7.8
2005-02-23 07:34:05 51°13.54 2°56.221 11.3 1.7 357 -999
2005-02-23 07:35:05 51°13.529 2°56.229 333.2 2.1 153 -999
2005-02-23 07:36:04 51°13.542 2°56.185 301.2 5 299 9.3
2005-02-23 07:37:04 51°13.593 2°56.049 307.1 6.3 303 8.4
2005-02-23 07:38:04 51°13.656 2°55.905 309.6 6.3 306 8.9
2005-02-23 07:39:05 51°13.715 2°55.774 310.6 6.7 306 11.3
2005-02-23 07:40:04 51°13.818 2°55.639 335.4 8.6 329 9.5
2005-02-23 07:41:02 51°13.954 2°55.536 341.1 9.6 337 9
2005-02-23 07:42:04 51°14.106 2°55.435 341.8 9.7 336 8.5
2005-02-23 07:43:04 51°14.239 2°55.295 323.3 9.7 317 8.8
2005-02-23 07:44:05 51°14.348 2°55.079 309.6 10.7 306 9
2005-02-23 07:45:05 51°14.449 2°54.807 309.4 12.3 302 9.1
2005-02-23 07:46:04 51°14.54 2°54.476 301.3 14.1 292 9
2005-02-23 07:47:04 51°14.656 2°54.159 315 13.7 308 8.9
2005-02-23 07:48:04 51°14.809 2°53.896 321 13.5 313 8.3
2005-02-23 07:49:04 51°14.959 2°53.635 323.9 13.3 316 8.5
2005-02-23 07:50:04 51°15.132 2°53.421 331.7 13.2 322 8.6
2005-02-23 07:51:04 51°15.326 2°53.271 347.6 13 337 9.3
2005-02-23 07:52:04 51°15.528 2°53.149 349.3 13.2 339 10
2005-02-23 07:53:05 51°15.731 2°53.015 347.9 13.1 336 10.5
2005-02-23 07:54:04 51°15.929 2°52.889 349.8 12.9 338 10.8
2005-02-23 07:55:05 51°16.131 2°52.775 348.5 12.7 339 11
2005-02-23 07:56:04 51°16.331 2°52.662 349.3 12.8 341 11.3
2005-02-23 07:57:05 51°16.533 2°52.546 348.3 12.6 340 10.5
2005-02-23 07:58:04 51°16.728 2°52.471 356.6 12.2 349 8.6
2005-02-23 07:59:05 51°16.928 2°52.407 357.3 12.1 349 8.4
2005-02-23 08:00:05 51°17.123 2°52.339 356.5 12.2 348 9.2
2005-02-23 08:01:04 51°17.321 2°52.268 356.2 12.5 348 9.5
2005-02-23 08:02:05 51°17.523 2°52.193 356.8 12.3 347 9.5
2005-02-23 08:03:05 51°17.723 2°52.214 17.2 11.9 9 9.3
2005-02-23 08:04:05 51°17.908 2°52.305 32.5 11.6 26 9.5
2005-02-23 08:05:04 51°18.079 2°52.439 31.5 11.7 26 9.8
2005-02-23 08:06:04 51°18.229 2°52.638 45.8 11.9 40 10.1
2005-02-23 08:07:05 51°18.379 2°52.842 44.4 11.8 40 10.3
2005-02-23 08:08:04 51°18.514 2°53.069 57.2 11.9 55 10.3
2005-02-23 08:09:05 51°18.624 2°53.341 64.4 12.2 65 10.2
2005-02-23 08:10:03 51°18.686 2°53.637 72.1 12.1 70 10.6
2005-02-23 08:11:04 51°18.75 2°53.943 70.8 11.9 72 10.6
2005-02-23 08:12:04 51°18.816 2°54.243 70.6 11.8 71 10.5
2005-02-23 08:13:04 51°18.882 2°54.54 70.8 11.9 68 10.4
2005-02-23 08:14:04 51°18.951 2°54.834 70.4 11.9 69 10.5
2005-02-23 08:15:05 51°19.019 2°55.134 70.8 11.9 70 10.3
2005-02-23 08:16:05 51°19.088 2°55.434 70.8 12 70 10.3
2005-02-23 08:17:05 51°19.16 2°55.732 71.1 12.1 68 10.4
2005-02-23 08:18:04 51°19.237 2°56.028 69 12.3 67 10
2005-02-23 08:19:03 51°19.316 2°56.315 67.4 11.9 64 9.9
2005-02-23 08:20:04 51°19.398 2°56.613 67.5 11.9 64 9.9
2005-02-23 08:21:04 51°19.476 2°56.901 68.8 12 68 9.8
2005-02-23 08:22:05 51°19.555 2°57.192 67.4 12 64 9.9
2005-02-23 08:23:04 51°19.635 2°57.478 67.9 12 65 9.6
2005-02-23 08:24:04 51°19.717 2°57.77 67.5 11.9 64 9.7
2005-02-23 08:25:04 51°19.796 2°58.065 69.4 12.3 67 9.6
2005-02-23 08:26:05 51°19.88 2°58.368 68.8 12.5 66 9.5
2005-02-23 08:27:05 51°19.964 2°58.668 68.5 12.3 67 9.4
2005-02-23 08:28:04 51°20.049 2°58.964 67.5 12.3 65 9.5
2005-02-23 08:29:05 51°20.133 2°59.265 68.3 12.2 66 9.4
2005-02-23 08:30:04 51°20.216 2°59.558 68.2 12.5 66 9.6
2005-02-23 08:31:05 51°20.3 2°59.862 68.3 12.3 69 9.6
2005-02-23 08:32:05 51°20.384 3°0.16 68.9 12.1 65 9.4
2005-02-23 08:33:04 51°20.466 3°0.457 67.8 12.1 64 9.5
2005-02-23 08:34:05 51°20.55 3°0.756 67.7 12.3 67 9.3
2005-02-23 08:35:05 51°20.632 3°1.053 68.3 12.1 67 9.5
2005-02-23 08:36:04 51°20.714 3°1.346 67.8 12.1 63 9.8
2005-02-23 08:37:04 51°20.797 3°1.643 67.8 12.2 65 9.4
2005-02-23 08:38:05 51°20.88 3°1.943 68.7 12.2 67 9.8
2005-02-23 08:39:04 51°20.955 3°2.245 71.1 12.4 68 9.8
2005-02-23 08:40:05 51°21.028 3°2.549 69.9 12.3 68 9.8
2005-02-23 08:41:04 51°21.1 3°2.849 73.3 12.1 72 9.5
2005-02-23 08:42:04 51°21.162 3°3.159 72.8 12.2 75 10
2005-02-23 08:43:05 51°21.23 3°3.47 71.7 12.2 69 9.8
2005-02-23 08:44:05 51°21.303 3°3.776 71.4 12.4 68 10.1
2005-02-23 08:45:05 51°21.374 3°4.082 71.8 12.4 72 10.2
2005-02-23 08:46:05 51°21.446 3°4.39 70.6 12.3 71 10
2005-02-23 08:47:04 51°21.517 3°4.695 71.9 12.5 67 10.2
2005-02-23 08:48:04 51°21.588 3°5.003 71.2 12.2 70 10.2
2005-02-23 08:49:05 51°21.659 3°5.315 70.4 12.3 68 10.4
2005-02-23 08:50:05 51°21.724 3°5.629 75.9 12.6 73 10.3
2005-02-23 08:51:05 51°21.78 3°5.949 76.2 12.5 75 10.2
2005-02-23 08:52:04 51°21.82 3°6.267 79.8 12.3 80 10.5
2005-02-23 08:53:05 51°21.86 3°6.592 79.6 12.4 78 10.9
2005-02-23 08:54:05 51°21.901 3°6.915 79.7 12.4 79 10.9
2005-02-23 08:55:05 51°21.943 3°7.241 79.5 12.5 77 10.9
2005-02-23 08:56:05 51°21.984 3°7.571 79.1 12.8 82 11
2005-02-23 08:57:05 51°22.026 3°7.905 79.7 12.7 80 11.1
2005-02-23 08:58:05 51°22.065 3°8.239 81.8 13 83 11.4
2005-02-23 08:59:04 51°22.098 3°8.573 80.9 13 83 11.3
2005-02-23 09:00:05 51°22.134 3°8.913 81.6 13 82 11.6
2005-02-23 09:01:04 51°22.17 3°9.251 81.2 13 80 11.9
2005-02-23 09:02:05 51°22.208 3°9.594 81.4 13.2 81 12.6
2005-02-23 09:03:04 51°22.246 3°9.933 81.2 13.1 80 13.2
2005-02-23 09:04:05 51°22.287 3°10.279 82.5 13.3 78 13.7
2005-02-23 09:05:05 51°22.33 3°10.623 81 13.2 79 17.1
2005-02-23 09:06:05 51°22.372 3°10.971 80.7 13.4 77 15
2005-02-23 09:07:05 51°22.415 3°11.319 81.2 13.5 78 14.9
2005-02-23 09:08:05 51°22.468 3°11.663 77.4 13.4 74 14.5
2005-02-23 09:09:04 51°22.53 3°11.998 76.4 13.1 74 13.9
2005-02-23 09:10:05 51°22.619 3°12.319 65.3 12.9 62 13.1
2005-02-23 09:11:04 51°22.722 3°12.621 64.5 13 61 12.5
2005-02-23 09:12:04 51°22.847 3°12.903 56.2 13 52 11.4
2005-02-23 09:13:04 51°23.033 3°13.054 19.6 12.9 10 11
2005-02-23 09:14:04 51°23.249 3°13.071 7.1 13 3 11.3
2005-02-23 09:15:05 51°23.464 3°13.066 1.9 13 356 10.9
2005-02-23 09:16:05 51°23.676 3°13.048 2.8 12.6 357 10.7
2005-02-23 09:17:04 51°23.888 3°13.032 2.9 12.9 357 11.4
2005-02-23 09:18:04 51°24.105 3°13.016 3.3 13.1 357 13.3
2005-02-23 09:19:04 51°24.324 3°13.001 3 13.2 358 18
2005-02-23 09:20:05 51°24.547 3°12.985 2.8 13.4 357 17.8
2005-02-23 09:21:04 51°24.766 3°12.976 5.2 13.2 -999 14.5
2005-02-23 09:22:05 51°24.959 3°12.849 334.7 12.2 329 12.5
2005-02-23 09:23:05 51°25.136 3°12.674 333.9 12.6 328 11
2005-02-23 09:24:05 51°25.198 3°12.379 273.9 12.7 267 10.1
2005-02-23 09:25:04 51°25.157 3°12.036 263.5 13.5 258 10
2005-02-23 09:26:04 51°25.111 3°11.682 264.9 13.5 258 9.6
2005-02-23 09:27:04 51°25.07 3°11.329 266.5 13.6 259 9.8
2005-02-23 09:28:04 51°25.03 3°10.974 266.4 13.5 258 9.4
2005-02-23 09:29:05 51°24.991 3°10.62 268 13.4 259 8.8
2005-02-23 09:30:04 51°24.95 3°10.273 266.6 13.4 261 8.5
2005-02-23 09:31:05 51°24.911 3°9.92 266.9 13.3 260 8.4
2005-02-23 09:32:04 51°24.871 3°9.573 266 13.3 257 8.2
2005-02-23 09:33:05 51°24.833 3°9.218 267 13.4 261 8.5
2005-02-23 09:34:05 51°24.815 3°8.862 277.6 13.3 273 8.8
2005-02-23 09:35:05 51°24.812 3°8.504 275.8 13.3 269 8.7
2005-02-23 09:36:04 51°24.839 3°8.158 286.2 13.4 278 9.4
2005-02-23 09:37:04 51°24.879 3°7.811 296.1 13 292 9.2
2005-02-23 09:38:05 51°25.004 3°7.549 333.1 12.2 327 9
2005-02-23 09:39:05 51°25.194 3°7.471 352.2 11.8 346 8.5
2005-02-23 09:40:05 51°25.389 3°7.394 353.5 12.1 346 9
2005-02-23 09:41:04 51°25.583 3°7.318 354 12 347 9.5
2005-02-23 09:42:05 51°25.777 3°7.243 353.1 12 345 9.8
2005-02-23 09:43:04 51°25.965 3°7.252 18.9 11.7 19 9.5
2005-02-23 09:44:05 51°26.09 3°7.492 61.9 12 63 8.1
2005-02-23 09:45:05 51°26.19 3°7.782 62.9 12.6 61 9.1
2005-02-23 09:46:04 51°26.29 3°8.074 61.8 12.7 61 9.8
2005-02-23 09:47:05 51°26.394 3°8.372 60.9 12.7 59 10
2005-02-23 09:48:04 51°26.497 3°8.664 60.8 12.8 60 10.8
2005-02-23 09:49:05 51°26.66 3°8.859 27.4 12.3 23 11.1
2005-02-23 09:50:04 51°26.855 3°8.838 352.3 12.2 343 11.2
2005-02-23 09:51:05 51°27.039 3°8.696 339.5 12.4 331 11.7
2005-02-23 09:52:04 51°27.219 3°8.54 340.3 12.3 332 12.2
2005-02-23 09:53:05 51°27.4 3°8.384 340.4 12.3 332 12
2005-02-23 09:54:05 51°27.581 3°8.231 340.7 12.2 333 12.6
2005-02-23 09:55:05 51°27.759 3°8.083 341.7 11.9 331 12
2005-02-23 09:56:04 51°27.939 3°7.937 341.6 12.1 332 11.9
2005-02-23 09:57:05 51°28.122 3°7.784 340.6 12.4 333 13.7
2005-02-23 09:58:05 51°28.305 3°7.632 340.4 12.3 332 14.7
2005-02-23 09:59:05 51°28.488 3°7.481 341.7 12.2 333 15.5
2005-02-23 10:00:04 51°28.671 3°7.329 341.5 12.5 332 16.2
2005-02-23 10:01:05 51°28.856 3°7.172 341.5 12.5 333 16.1
2005-02-23 10:02:05 51°29.04 3°7.019 341.7 12.4 332 16.6
2005-02-23 10:03:05 51°29.224 3°6.862 340.9 12.4 332 17.5
2005-02-23 10:04:05 51°29.406 3°6.707 341 12.7 330 19.4
2005-02-23 10:05:05 51°29.592 3°6.541 341.5 12.7 331 20.6
2005-02-23 10:06:05 51°29.776 3°6.376 340.9 13 331 22.2
2005-02-23 10:07:05 51°29.959 3°6.207 341.8 12.9 331 23.8
2005-02-23 10:08:05 51°30.147 3°6.039 342.1 12.8 330 23.8
2005-02-23 10:09:05 51°30.336 3°5.867 341.5 13.2 330 24
2005-02-23 10:10:05 51°30.524 3°5.692 341.3 13.1 331 22.9
2005-02-23 10:11:05 51°30.707 3°5.523 342.5 12.6 332 24.1
2005-02-23 10:12:05 51°30.891 3°5.364 341.9 12.3 332 24.1
2005-02-23 10:13:05 51°31.076 3°5.203 341.4 13 331 26
2005-02-23 10:14:05 51°31.268 3°5.037 341.8 13 332 27.4
2005-02-23 10:15:05 51°31.457 3°4.87 341 13.1 333 28.8
2005-02-23 10:16:05 51°31.649 3°4.705 341.1 13.1 332 29.1
2005-02-23 10:17:05 51°31.842 3°4.543 340.9 13.3 331 29.4
2005-02-23 10:18:04 51°32.032 3°4.383 341.4 13 332 29.1
2005-02-23 10:19:05 51°32.226 3°4.22 340.4 13 332 30
2005-02-23 10:20:04 51°32.419 3°4.062 340.7 13 333 31.6
2005-02-23 10:21:05 51°32.616 3°3.901 341.2 13 333 31.8
2005-02-23 10:22:05 51°32.812 3°3.759 340.7 12.7 336 28.2
2005-02-23 10:23:05 51°32.997 3°3.617 338.9 12.2 334 23.2
2005-02-23 10:24:05 51°33.166 3°3.428 325.5 12.4 319 19.5
2005-02-23 10:25:05 51°33.217 3°3.107 281.6 13.2 272 22.4
2005-02-23 10:26:05 51°33.156 3°2.759 257 13.4 249 22.1
2005-02-23 10:27:05 51°33.071 3°2.416 252.4 13.7 252 22.9
2005-02-23 10:28:05 51°32.991 3°2.069 257.5 13.8 249 24.2
2005-02-23 10:29:05 51°32.916 3°1.72 257.1 13.8 251 25
2005-02-23 10:30:05 51°32.842 3°1.372 256.3 13.5 243 28.1
2005-02-23 10:31:05 51°32.743 3°1.041 248.6 14.4 241 29.2
2005-02-23 10:32:05 51°32.641 3°0.709 247.3 13.9 243 30.7
2005-02-23 10:33:04 51°32.535 3°0.379 250.5 14.1 240 31.6
2005-02-23 10:34:05 51°32.436 3°0.036 247.5 14 243 32.3
2005-02-23 10:35:05 51°32.33 2°59.692 245.2 14.1 241 34
2005-02-23 10:36:05 51°32.223 2°59.354 245.4 14.9 243 34.2
2005-02-23 10:37:05 51°32.113 2°59.025 245.9 13.6 246 34.2
2005-02-23 10:38:05 51°32.01 2°58.69 247.2 13.9 240 37.2
2005-02-23 10:39:05 51°31.903 2°58.358 246.8 13.6 242 37.2
2005-02-23 10:40:05 51°31.8 2°58.025 248.4 13.7 236 35.4
2005-02-23 10:41:05 51°31.699 2°57.698 246.7 13.3 243 36
2005-02-23 10:42:05 51°31.591 2°57.382 248.2 13.2 239 32.9
2005-02-23 10:43:04 51°31.487 2°57.068 247.6 13.8 233 31.3
2005-02-23 10:44:05 51°31.383 2°56.747 247.3 13 240 31.1
2005-02-23 10:45:05 51°31.278 2°56.428 246 13.7 238 31.2
2005-02-23 10:46:05 51°31.17 2°56.113 248.4 13.8 241 29.3
2005-02-23 10:47:04 51°31.065 2°55.806 246.8 13 241 29.3
2005-02-23 10:48:05 51°30.959 2°55.484 247.8 13.9 245 25.9
2005-02-23 10:49:05 51°30.87 2°55.157 251.9 13.5 245 24.3
2005-02-23 10:50:05 51°30.817 2°54.819 266.5 13.2 262 24.2
2005-02-23 10:51:05 51°30.79 2°54.472 267 13.3 255 19.9
2005-02-23 10:52:05 51°30.738 2°54.132 262.6 13 253 24.7
2005-02-23 10:53:05 51°30.685 2°53.792 263.8 12.6 252 26.2
2005-02-23 10:54:05 51°30.644 2°53.452 266.1 13.1 266 26.3
2005-02-23 10:55:05 51°30.77 2°53.232 345.4 11.8 350 21
2005-02-23 10:56:05 51°30.948 2°53.379 35.8 12.6 34 21.1
2005-02-23 10:57:05 51°31.111 2°53.606 48.1 13.3 47 21.2
2005-02-23 10:58:05 51°31.258 2°53.867 48.6 13.1 48 21.1
2005-02-23 10:59:05 51°31.396 2°54.14 52.9 13.4 52 21.6
2005-02-23 11:00:05 51°31.538 2°54.425 52.9 13.6 52 21.6
2005-02-23 11:01:05 51°31.675 2°54.702 51.1 13.6 52 19.3
2005-02-23 11:02:05 51°31.815 2°54.982 52.4 13.5 51 21.7
2005-02-23 11:03:05 51°31.959 2°55.266 53.1 13.7 50 22.1
2005-02-23 11:04:05 51°32.101 2°55.547 52.2 13.2 51 21.2
2005-02-23 11:05:05 51°32.24 2°55.828 53.2 13.7 53 22.7
2005-02-23 11:06:05 51°32.375 2°56.11 53.5 13.6 51 22.9
2005-02-23 11:07:05 51°32.514 2°56.393 53.6 13.1 50 21.3
2005-02-23 11:08:05 51°32.651 2°56.672 53.5 13.4 53 23.2
2005-02-23 11:09:05 51°32.787 2°56.954 53.8 13.3 53 24.1
2005-02-23 11:10:04 51°32.921 2°57.231 53 13.3 53 21.6
2005-02-23 11:11:04 51°33.06 2°57.516 53.4 13.4 53 20.3
2005-02-23 11:12:05 51°33.2 2°57.81 53 13.5 53 21.9
2005-02-23 11:13:05 51°33.336 2°58.099 53.3 13.6 52 20.5
2005-02-23 11:14:05 51°33.473 2°58.391 53.7 13.5 52 22.3
2005-02-23 11:15:05 51°33.61 2°58.683 52.8 13.6 52 20.1
2005-02-23 11:16:03 51°33.742 2°58.963 54.2 13.8 52 20.3
2005-02-23 11:17:05 51°33.883 2°59.263 52.4 13.6 52 21.2
2005-02-23 11:18:05 51°34.02 2°59.554 52.7 13.5 53 22.1
2005-02-23 11:19:05 51°34.155 2°59.844 53.2 13.4 53 18.1
2005-02-23 11:20:05 51°34.294 3°0.14 52.9 13.8 52 20.2
2005-02-23 11:21:05 51°34.432 3°0.436 53.3 13.7 54 19
2005-02-23 11:22:05 51°34.567 3°0.73 52.9 13.9 53 19.2
2005-02-23 11:23:05 51°34.71 3°1.02 47.1 13.7 46 20.4
2005-02-23 11:24:05 51°34.905 3°1.131 3 12.9 358 21
2005-02-23 11:25:04 51°35.097 3°0.999 331.5 12.7 332 24.6
2005-02-23 11:26:04 51°35.278 3°0.817 329.1 12.9 329 27.6
2005-02-23 11:27:05 51°35.448 3°0.605 318 12.6 308 27.8
2005-02-23 11:28:05 51°35.493 3°0.286 270.8 12.4 259 30.3
2005-02-23 11:29:05 51°35.389 2°59.988 236.5 13.3 237 31.9
2005-02-23 11:30:05 51°35.253 2°59.714 234.8 12.5 232 30.8
2005-02-23 11:31:05 51°35.121 2°59.44 234.5 12.8 233 29.1
2005-02-23 11:32:05 51°34.99 2°59.164 238.7 13.5 234 27.1
2005-02-23 11:33:05 51°34.863 2°58.885 238.2 12.9 232 30.4
2005-02-23 11:34:05 51°34.735 2°58.614 236.6 12 232 30.5
2005-02-23 11:35:05 51°34.609 2°58.336 238.8 12.5 239 30.4
2005-02-23 11:36:05 51°34.483 2°58.051 237.8 12.7 230 30.3
2005-02-23 11:37:05 51°34.359 2°57.771 236.5 13.4 227 30.5
2005-02-23 11:38:04 51°34.234 2°57.499 234.4 13.1 233 30.3
2005-02-23 11:39:05 51°34.102 2°57.221 238.8 12.4 228 30.8
2005-02-23 11:40:05 51°33.982 2°56.943 237.1 12.8 236 30.8
2005-02-23 11:41:05 51°33.857 2°56.674 236.2 12.5 232 30.5
2005-02-23 11:42:05 51°33.728 2°56.4 236.9 12.7 232 30.5
2005-02-23 11:43:04 51°33.606 2°56.117 238.5 14.3 237 28.9
2005-02-23 11:44:05 51°33.482 2°55.832 240.1 13.4 233 29.5
2005-02-23 11:45:05 51°33.369 2°55.55 240.5 12.4 235 27.3
2005-02-23 11:46:05 51°33.248 2°55.272 239.4 11.8 234 27.7
2005-02-23 11:47:04 51°33.132 2°54.999 240 12.9 235 24.8
2005-02-23 11:48:05 51°33.007 2°54.725 238 12.2 235 25.3
2005-02-23 11:49:05 51°32.887 2°54.453 241.4 12.3 228 24.7
2005-02-23 11:50:05 51°32.773 2°54.183 242.6 12.5 227 27.6
2005-02-23 11:51:05 51°32.656 2°53.913 240.9 12.5 239 26.4
2005-02-23 11:52:05 51°32.54 2°53.64 240.6 12.7 235 26.4
2005-02-23 11:53:05 51°32.42 2°53.366 240.2 12.7 228 23.1
2005-02-23 11:54:05 51°32.305 2°53.103 240.1 11.4 235 24.4
2005-02-23 11:55:05 51°32.187 2°52.828 239.6 12.4 232 24.3
2005-02-23 11:56:05 51°32.069 2°52.553 241.6 12 237 26.6
2005-02-23 11:57:04 51°31.953 2°52.276 235.4 13 243 26.9
2005-02-23 11:58:05 51°31.836 2°52 236.9 12.4 234 27.6
2005-02-23 11:59:05 51°31.719 2°51.733 242.3 11.8 232 28.3
2005-02-23 12:00:05 51°31.606 2°51.465 241.3 12.6 240 29.2
2005-02-23 12:01:05 51°31.493 2°51.192 240.9 11.8 239 30
2005-02-23 12:02:05 51°31.379 2°50.927 240.5 12.3 233 28.5
2005-02-23 12:03:05 51°31.269 2°50.642 242.6 12.6 238 26.1
2005-02-23 12:04:05 51°31.161 2°50.36 243.3 12.1 237 27.6
2005-02-23 12:05:05 51°31.05 2°50.088 242.4 12.4 231 29.3
2005-02-23 12:06:05 51°30.942 2°49.803 241.6 11.8 232 26.3
2005-02-23 12:07:05 51°30.836 2°49.522 240.2 12.6 232 28.7
2005-02-23 12:08:05 51°30.727 2°49.248 241.6 12.2 237 29.1
2005-02-23 12:09:05 51°30.624 2°48.967 242.8 12.1 236 24.4
2005-02-23 12:10:05 51°30.517 2°48.694 242.4 12 234 25.9
2005-02-23 12:11:05 51°30.405 2°48.422 242.9 12.7 234 26.4
2005-02-23 12:12:05 51°30.3 2°48.145 240.8 12.6 247 28
2005-02-23 12:13:05 51°30.2 2°47.867 239.5 11.9 241 26.8
2005-02-23 12:14:05 51°30.093 2°47.589 241.4 11.9 235 26.4
2005-02-23 12:15:05 51°29.984 2°47.315 240.6 11.9 234 24.9
2005-02-23 12:16:05 51°29.879 2°47.041 241.4 12.3 240 27.7
2005-02-23 12:17:05 51°29.774 2°46.765 244.9 12 244 23.9
2005-02-23 12:18:05 51°29.67 2°46.495 242.7 11.7 240 27.7
2005-02-23 12:19:05 51°29.574 2°46.219 246.6 11.4 244 25.8
2005-02-23 12:20:05 51°29.579 2°45.893 281.7 12.6 282 22.9
2005-02-23 12:21:05 51°29.675 2°45.599 311.2 13 313 27.9
2005-02-23 12:22:05 51°29.865 2°45.414 333.9 13.8 334 30.3
2005-02-23 12:23:05 51°30.08 2°45.292 351 13.4 353 -999
2005-02-23 12:24:05 51°30.296 2°45.389 32.8 14 35 33.3
2005-02-23 12:25:05 51°30.441 2°45.696 65.5 14.5 62 31.9
2005-02-23 12:26:05 51°30.56 2°46.04 66.5 14.9 60 31.6
2005-02-23 12:27:05 51°30.674 2°46.391 68.3 14.4 63 29
2005-02-23 12:28:05 51°30.789 2°46.74 68.2 14.8 64 29.5
2005-02-23 12:29:05 51°30.904 2°47.096 66.4 14.7 63 30.3
2005-02-23 12:30:05 51°31.017 2°47.451 68.2 15 64 30.8
2005-02-23 12:31:05 51°31.128 2°47.808 68.9 14.9 64 33
2005-02-23 12:32:05 51°31.24 2°48.16 66.8 15 61 31.1
2005-02-23 12:33:05 51°31.368 2°48.504 61.8 14.7 57 32.3
2005-02-23 12:34:05 51°31.503 2°48.843 61.2 14.9 58 32.5
2005-02-23 12:35:05 51°31.634 2°49.181 62.2 15 57 31.8
2005-02-23 12:36:05 51°31.765 2°49.518 62.4 14.8 58 32.2
2005-02-23 12:37:05 51°31.895 2°49.856 62.3 14.4 59 33.1
2005-02-23 12:38:05 51°32.025 2°50.195 62.3 15.1 55 32.7
2005-02-23 12:39:05 51°32.16 2°50.527 59.2 15 54 32.4
2005-02-23 12:40:05 51°32.298 2°50.855 60.5 14.8 55 31.9
2005-02-23 12:41:05 51°32.435 2°51.188 60.2 14.9 57 30.2
2005-02-23 12:42:05 51°32.568 2°51.515 60.6 14.6 56 33.5
2005-02-23 12:43:05 51°32.705 2°51.848 59.3 14.9 57 31.5
2005-02-23 12:44:05 51°32.838 2°52.173 59.9 14.8 57 30.4
2005-02-23 12:45:05 51°32.976 2°52.507 59.5 15 56 31.8
2005-02-23 12:46:05 51°33.11 2°52.835 60.2 14.9 57 30.6
2005-02-23 12:47:05 51°33.248 2°53.171 60.2 14.9 56 30.1
2005-02-23 12:48:05 51°33.383 2°53.501 61.3 14.4 57 28.8
2005-02-23 12:49:05 51°33.517 2°53.831 60.9 15 57 29
2005-02-23 12:50:04 51°33.545 2°54.2 105.6 14.2 109 30.4
2005-02-23 12:51:05 51°33.414 2°54.509 140.2 13.2 134 28.5
2005-02-23 12:52:05 51°33.232 2°54.712 158.7 13.4 152 27.8
2005-02-23 12:53:05 51°33.038 2°54.889 158.5 13.7 152 27.6
2005-02-23 12:54:05 51°32.843 2°55.061 158.4 12.5 150 27.3
2005-02-23 12:55:05 51°32.652 2°55.238 157.5 13.2 148 26.2
2005-02-23 12:56:05 51°32.46 2°55.407 158.3 13.6 148 24.6
2005-02-23 12:57:05 51°32.276 2°55.608 154 14.1 146 23.7
2005-02-23 12:58:05 51°32.091 2°55.822 154.6 14.1 141 22.3
2005-02-23 12:59:05 51°31.909 2°56.021 153.5 13.3 146 21.9
2005-02-23 13:00:05 51°31.724 2°56.216 154.9 13.2 143 19.7
2005-02-23 13:01:05 51°31.541 2°56.416 158.4 13.5 150 17.9
2005-02-23 13:02:04 51°31.363 2°56.621 153.6 13.3 146 32.1
2005-02-23 13:03:05 51°31.179 2°56.832 155.3 13.2 146 34.1
2005-02-23 13:04:05 51°30.998 2°57.041 152.7 13.1 148 33.2
2005-02-23 13:05:05 51°30.82 2°57.24 157.9 12.3 152 31.9
2005-02-23 13:06:05 51°30.623 2°57.352 171.1 13.5 161 31.8
2005-02-23 13:07:04 51°30.424 2°57.445 175.7 12 168 30.7
2005-02-23 13:08:05 51°30.216 2°57.442 188.2 13 182 29.2
2005-02-23 13:09:05 51°30.015 2°57.379 199.5 11.8 192 29.3
2005-02-23 13:10:05 51°29.817 2°57.304 200.3 12.2 195 29.3
2005-02-23 13:11:05 51°29.617 2°57.208 201.9 12.3 195 27.5
2005-02-23 13:12:05 51°29.415 2°57.118 199.6 12.9 195 26.1
2005-02-23 13:13:05 51°29.215 2°57.032 200.8 12.2 196 24
2005-02-23 13:14:05 51°29.018 2°56.949 199.5 12.9 194 25
2005-02-23 13:15:05 51°28.819 2°56.866 200.3 12.7 192 27.3
2005-02-23 13:16:04 51°28.627 2°56.787 200.8 12 192 29.3
2005-02-23 13:17:05 51°28.426 2°56.713 198.8 12 190 28.5
2005-02-23 13:18:04 51°28.231 2°56.632 199.4 12.7 192 29.6
2005-02-23 13:19:05 51°28.031 2°56.57 192.7 12 186 29.5
2005-02-23 13:20:03 51°27.834 2°56.554 188 12.1 184 30.4
2005-02-23 13:21:05 51°27.629 2°56.5 197 11.7 195 30.8
2005-02-23 13:22:05 51°27.432 2°56.43 199.2 11.9 194 30
2005-02-23 13:23:05 51°27.243 2°56.36 200.5 11.5 190 29.2
2005-02-23 13:24:05 51°27.046 2°56.288 200.3 12.2 192 29.3
2005-02-23 13:25:05 51°26.848 2°56.209 198.9 12.3 192 26.4
2005-02-23 13:26:05 51°26.654 2°56.132 199.9 12 194 26.6
2005-02-23 13:27:03 51°26.465 2°56.054 199.1 12 194 22.8
2005-02-23 13:28:05 51°26.259 2°55.98 196.8 12.7 196 22
2005-02-23 13:29:05 51°26.061 2°55.899 198.8 12.2 196 20.8
2005-02-23 13:30:03 51°25.87 2°55.823 198.1 12.3 194 21.4
2005-02-23 13:31:05 51°25.663 2°55.737 198.8 12.3 194 20
2005-02-23 13:32:05 51°25.467 2°55.652 202.6 12.2 199 18.7
2005-02-23 13:33:05 51°25.268 2°55.57 199.4 12.5 195 19.4
2005-02-23 13:34:05 51°25.069 2°55.487 198.4 12.2 195 21.6
2005-02-23 13:35:03 51°24.873 2°55.408 198.4 12.6 195 23.8
2005-02-23 13:36:05 51°24.665 2°55.33 199.1 12 194 25.3
2005-02-23 13:37:05 51°24.466 2°55.252 199.4 12.9 195 25
2005-02-23 13:38:05 51°24.268 2°55.173 198.5 11.9 192 24.5
2005-02-23 13:39:05 51°24.076 2°55.074 203.2 12.4 201 23.2
2005-02-23 13:40:05 51°23.899 2°54.935 214.8 12.4 214 23.1
2005-02-23 13:41:05 51°23.734 2°54.761 217 12.2 217 22.4
2005-02-23 13:42:05 51°23.558 2°54.617 209.2 12.2 206 21.7
2005-02-23 13:43:05 51°23.376 2°54.491 207.6 11.9 196 20
2005-02-23 13:44:04 51°23.202 2°54.364 208.8 12.2 206 21.6
2005-02-23 13:45:05 51°23.018 2°54.233 209.5 11.8 205 24.3
2005-02-23 13:46:05 51°22.838 2°54.106 210.9 12.1 199 23.7
2005-02-23 13:47:05 51°22.65 2°53.991 207.3 12.4 198 24.8
2005-02-23 13:48:05 51°22.457 2°53.895 202.4 12.4 198 24.2
2005-02-23 13:49:05 51°22.262 2°53.798 204.8 12.4 197 22.8
2005-02-23 13:50:05 51°22.068 2°53.702 201.7 12.3 195 21.2
2005-02-23 13:51:05 51°21.874 2°53.599 205.5 11.5 196 21
2005-02-23 13:52:05 51°21.675 2°53.501 206.8 12.1 201 19.4
2005-02-23 13:53:05 51°21.481 2°53.403 202.2 12.5 195 18.5
2005-02-23 13:54:05 51°21.276 2°53.323 197.2 12.2 192 17.4
2005-02-23 13:55:05 51°21.068 2°53.252 200.8 14 196 17.9
2005-02-23 13:56:05 51°20.864 2°53.176 198.1 11.9 192 18.6
2005-02-23 13:57:05 51°20.655 2°53.1 196.2 12.5 190 18.5
2005-02-23 13:58:05 51°20.452 2°53.019 199.5 13 198 18.3
2005-02-23 13:59:05 51°20.251 2°52.941 201.1 11.9 195 18.4
2005-02-23 14:00:05 51°20.054 2°52.869 199.3 12 191 18.2
2005-02-23 14:01:05 51°19.858 2°52.796 197 11.8 189 17.8
2005-02-23 14:02:05 51°19.662 2°52.725 198.8 12.1 195 17.5
2005-02-23 14:03:05 51°19.462 2°52.642 197.7 12.8 195 16.7
2005-02-23 14:04:05 51°19.264 2°52.558 200.5 12.9 199 16.1
2005-02-23 14:05:05 51°19.061 2°52.479 199.8 12.4 192 15.5
2005-02-23 14:06:05 51°18.857 2°52.414 195.5 12.6 188 14.6
2005-02-23 14:07:05 51°18.653 2°52.353 194.6 12.7 189 14.1
2005-02-23 14:08:05 51°18.442 2°52.291 196 12.4 191 13.4
2005-02-23 14:09:05 51°18.238 2°52.235 196.3 12.5 191 12.9
2005-02-23 14:10:05 51°18.031 2°52.187 190.4 12.3 189 12.7
2005-02-23 14:11:05 51°17.816 2°52.176 188.7 13.1 184 12.6
2005-02-23 14:12:05 51°17.603 2°52.171 186.2 13 181 12.5
2005-02-23 14:13:05 51°17.39 2°52.152 189.4 12.5 185 12.3
2005-02-23 14:14:05 51°17.177 2°52.157 181.3 12.6 174 12.3
2005-02-23 14:15:05 51°16.962 2°52.191 176.7 13.2 170 12
2005-02-23 14:16:05 51°16.758 2°52.299 161.8 12.3 154 11.8
2005-02-23 14:17:04 51°16.566 2°52.454 163.2 13.6 153 13.4
2005-02-23 14:18:05 51°16.37 2°52.629 156 13.9 150 14.5
2005-02-23 14:19:05 51°16.179 2°52.819 155.1 12.6 148 14.1
2005-02-23 14:20:05 51°15.994 2°53.015 155.3 13.1 146 13.9
2005-02-23 14:21:05 51°15.806 2°53.202 156.6 13.3 147 13.5
2005-02-23 14:22:05 51°15.621 2°53.399 154.2 13.6 147 12.9
2005-02-23 14:23:05 51°15.432 2°53.591 153.1 13.2 149 12.3
2005-02-23 14:24:05 51°15.244 2°53.781 151.2 14 145 11.5
2005-02-23 14:25:05 51°15.061 2°53.973 151.5 13.4 147 11.2
2005-02-23 14:26:05 51°14.877 2°54.181 154.4 13.4 146 11
2005-02-23 14:27:05 51°14.735 2°54.379 148.6 10.1 137 11.9
2005-02-23 14:28:05 51°14.682 2°54.543 96.8 6.2 81 11.8
2005-02-23 14:29:05 51°14.734 2°54.648 35.2 4.1 40 11.9
2005-02-23 14:30:05 51°14.779 2°54.7 21.7 3.1 34 11.6
2005-02-23 14:31:05 51°14.866 2°54.673 318.6 7.3 312 11.2
2005-02-23 14:32:05 51°14.811 2°54.536 200.7 8.9 188 11.6
2005-02-23 14:33:05 51°14.652 2°54.668 156.4 11.8 145 11.7
2005-02-23 14:34:05 51°14.49 2°54.843 158.5 11.8 155 11.9
2005-02-23 14:35:05 51°14.361 2°55.046 127.1 10.6 122 11.9
2005-02-23 14:36:05 51°14.27 2°55.24 132 8.5 130 11.8
2005-02-23 14:37:05 51°14.168 2°55.38 148.2 8 148 11.7
2005-02-23 14:38:05 51°14.048 2°55.47 158.8 8 156 11.3
2005-02-23 14:39:05 51°13.924 2°55.557 158.5 8.2 156 12.1
2005-02-23 14:40:05 51°13.802 2°55.654 153.1 8.2 151 12.4
2005-02-23 14:41:05 51°13.711 2°55.792 132.5 6.6 129 14.3
2005-02-23 14:42:05 51°13.658 2°55.913 125.7 4.9 123 11.7
2005-02-23 14:43:05 51°13.623 2°56.013 120.4 3.9 117 11.9
2005-02-23 14:44:05 51°13.601 2°56.084 118.9 2.6 115 9.6
2005-02-23 14:45:05 51°13.595 2°56.101 120.5 0.2 137 9